Meath Environmental Platform

Observations for Trim Patrick St

Time AQI Temp °C Hum % Pres Pa CO μg/m³ H₂S μg/m³ NO μg/m³ NO₂ μg/m³ O₃ μg/m³ SO₂ μg/m³ PM1 μg/m³ PM2.5 μg/m³ PM10 μg/m³
Saturday 1 August 2026
20:55 3 21.3 46 68,823 0 19.74 1.22 54.56 39.39 8.38 5.43 12.05 13.26
20:53 3 21.5 45 68,829 0 19.45 1.13 41.71 47.28 8.25 7.14 14.43 15.88
20:52 3 21.6 45 68,839 0 20.16 1.16 48.84 43.58 8.46 5.43 11.35 12.48
20:51 3 21.6 45 68,853 0 20.26 1.15 52.83 40.05 8.93 5.43 12.11 13.33
20:50 3 21.7 45 68,839 0 19.87 1.16 42.39 48.69 8.77 8 15.23 16.76
20:49 3 21.7 45 68,821 0 19.76 1.19 38.37 54.36 8.37 8 12.91 14.2
20:48 3 21.8 45 68,829 0 21.08 1.15 48.35 44.17 9.13 6.29 12.16 13.38
20:47 3 21.9 45 68,839 0 20.26 1.09 41.06 52.1 8.68 5.43 13.71 15.08
20:46 3 21.9 45 68,851 0 19.87 1.15 46.29 45.45 8.99 7.14 13.72 15.09
20:45 3 22 45 68,839 0 20.18 1.12 39.76 53.65 8.86 6.29 12.94 14.23
20:44 3 22 44 68,851 0 20.69 1.09 48.63 47.87 8.85 5.43 12.19 13.4
20:43 3 22.1 44 68,833 0 19.34 1.07 40.52 53.32 9.05 6.29 12.19 13.41
20:40 3 22.2 44 68,863 0 19.23 1.13 42.49 53.78 8.87 5.43 11.44 12.58
20:39 3 22.3 44 68,880 0 19.55 1.14 38.8 57.82 9.44 4.57 11.47 12.62
20:38 3 22.4 43 68,873 0 19.6 1.13 40.37 51.06 8.99 3.71 9.17 10.09
20:36 3 22.5 43 68,861 0 21.61 1.14 53.98 43.91 9.47 5.43 11.49 12.64
20:35 3 22.5 43 68,849 0 21.87 1.1 55.59 44.45 9.51 4.57 10.72 11.79
20:33 3 22.7 43 68,878 0 19.22 1.1 35.66 56.9 9.45 4.57 10.77 11.84
20:32 3 22.7 43 68,900 0 20.12 1.02 37.34 64.09 10.14 3.71 9.96 10.96
20:29 3 22.9 43 68,875 0 20.01 0.92 46.91 59.03 9.82 4.57 9.98 10.98